createdAt,value
2018-03-27T00:01:36.225Z,9.93
2018-03-27T00:06:37.158Z,11.10
2018-03-27T00:11:38.146Z,11.87
2018-03-27T00:16:39.071Z,12.73
2018-03-27T00:21:40.033Z,12.50
2018-03-27T00:26:53.266Z,14.93
2018-03-27T00:32:06.565Z,13.20
2018-03-27T00:37:19.962Z,12.60
2018-03-27T00:42:24.679Z,12.50
2018-03-27T00:47:25.603Z,11.97
2018-03-27T00:52:26.523Z,11.00
2018-03-27T00:57:27.441Z,11.67
2018-03-27T01:02:28.361Z,9.23
2018-03-27T01:07:29.296Z,7.70
2018-03-27T01:12:30.283Z,8.70
2018-03-27T01:17:31.209Z,8.83
2018-03-27T07:30:49.452Z,18.43
2018-03-27T07:35:50.440Z,20.20
2018-03-27T07:40:51.392Z,20.60
2018-03-27T07:45:52.340Z,21.23
2018-03-27T07:50:53.342Z,25.27
2018-03-27T07:55:54.303Z,24.20
2018-03-27T08:00:55.263Z,21.60
2018-03-27T08:05:56.232Z,21.77
2018-03-27T08:10:57.197Z,21.03
2018-03-27T08:15:58.166Z,17.03
2018-03-27T08:20:59.143Z,15.50
2018-03-27T08:26:00.130Z,16.10
2018-03-27T08:31:01.090Z,14.23
2018-03-27T08:36:02.075Z,14.87
2018-03-27T08:41:03.052Z,14.93
2018-03-27T08:46:04.029Z,14.90
2018-03-27T08:51:04.993Z,15.90
2018-03-27T08:56:05.993Z,15.60
2018-03-27T09:01:06.952Z,19.23
2018-03-27T09:06:07.904Z,17.17
2018-03-27T09:11:08.868Z,17.60
2018-03-27T09:16:09.857Z,16.20
2018-03-27T09:21:10.848Z,14.10
2018-03-27T09:26:11.787Z,14.37
2018-03-27T09:31:12.804Z,14.70
2018-03-27T09:36:13.773Z,13.70
2018-03-27T09:41:14.749Z,15.57
2018-03-27T09:46:15.694Z,13.40
2018-03-27T09:51:16.636Z,16.10
2018-03-27T09:56:17.604Z,13.70
2018-03-27T10:01:24.601Z,14.67
2018-03-27T10:06:25.565Z,14.73
2018-03-27T10:11:26.503Z,14.30
2018-03-27T10:16:27.509Z,15.17
2018-03-27T10:21:28.454Z,13.07
2018-03-27T10:26:29.416Z,11.93
2018-03-27T10:31:30.420Z,12.10
2018-03-27T10:36:31.424Z,10.40
2018-03-27T10:41:32.385Z,13.00
2018-03-27T10:46:33.376Z,13.97
2018-03-27T10:51:34.454Z,13.47
2018-03-27T10:56:35.425Z,15.23
2018-03-27T11:01:36.376Z,16.10
2018-03-27T11:06:37.337Z,14.27
2018-03-27T11:11:38.286Z,15.20
2018-03-27T11:16:39.280Z,15.87
2018-03-27T11:21:40.327Z,14.57
2018-03-27T11:26:41.301Z,14.90
2018-03-27T11:31:42.269Z,15.87
2018-03-27T11:36:43.261Z,17.07
2018-03-27T11:41:44.213Z,15.53
2018-03-27T11:46:45.214Z,16.97
2018-03-27T11:51:46.183Z,16.60
2018-03-27T11:56:47.171Z,17.07
2018-03-27T12:01:48.135Z,15.60
2018-03-27T12:06:49.102Z,14.23
2018-03-27T12:11:50.102Z,13.47
2018-03-27T12:16:51.084Z,13.17
2018-03-27T12:21:52.039Z,14.80
2018-03-27T12:26:52.996Z,13.70
2018-03-27T12:31:53.977Z,13.50
2018-03-27T12:36:54.978Z,13.50
2018-03-27T12:41:56.760Z,14.77
2018-03-27T12:46:57.734Z,13.50
2018-03-27T12:51:58.692Z,14.33
2018-03-27T12:56:59.678Z,15.77
2018-03-27T13:02:00.649Z,14.70
2018-03-27T13:07:01.619Z,14.50
2018-03-27T13:12:02.590Z,12.43
2018-03-27T13:17:03.570Z,14.73
2018-03-27T13:22:04.543Z,14.63
2018-03-27T13:27:05.505Z,15.63
2018-03-27T13:32:06.469Z,15.43
2018-03-27T13:37:07.505Z,14.30
2018-03-27T13:42:08.543Z,12.90
2018-03-27T13:47:09.521Z,13.10
2018-03-27T14:36:48.452Z,17.23
2018-03-27T14:41:49.510Z,17.07
2018-03-27T14:46:50.562Z,16.43
2018-03-27T14:51:51.522Z,18.73
2018-03-27T14:56:52.529Z,17.80
2018-03-27T15:01:53.499Z,19.10
2018-03-27T15:06:54.485Z,18.17
2018-03-27T15:11:55.442Z,17.03
2018-03-27T15:16:56.442Z,19.30
2018-03-27T15:21:57.403Z,17.93
2018-03-27T15:26:58.432Z,18.27
2018-03-27T15:31:59.373Z,18.40
2018-03-27T15:37:00.346Z,18.50
2018-03-27T15:42:01.375Z,20.30
2018-03-27T15:47:02.361Z,18.10
2018-03-27T15:52:03.407Z,16.07
2018-03-27T15:57:04.427Z,15.60
2018-03-27T16:02:05.418Z,15.73
2018-03-27T16:07:06.424Z,16.13
2018-03-27T16:12:07.425Z,13.73
2018-03-27T16:17:08.425Z,14.73
2018-03-27T16:22:09.404Z,18.03
2018-03-27T16:27:10.424Z,16.13
2018-03-27T16:32:11.417Z,19.30
2018-03-27T16:37:12.427Z,18.83
2018-03-27T16:42:13.446Z,16.43
2018-03-27T16:47:14.487Z,16.40
2018-03-27T16:52:15.503Z,18.57
2018-03-27T16:57:16.525Z,18.30
2018-03-27T17:02:17.549Z,19.00
2018-03-27T17:07:18.524Z,19.53
2018-03-27T17:12:19.514Z,20.07
2018-03-27T17:17:20.519Z,18.00
2018-03-27T17:22:21.506Z,21.10
2018-03-27T17:27:22.483Z,19.30
2018-03-27T17:32:23.499Z,18.50
2018-03-27T17:37:24.474Z,20.10
2018-03-27T17:42:25.490Z,18.87
2018-03-27T17:47:26.482Z,18.07
2018-03-27T17:52:27.460Z,19.77
2018-03-27T17:57:28.506Z,19.70
2018-03-27T18:02:29.496Z,19.10
2018-03-27T18:07:30.519Z,17.87
2018-03-27T18:12:31.536Z,18.13
2018-03-27T18:17:33.849Z,15.80
2018-03-27T18:22:34.890Z,17.90
2018-03-27T18:27:35.875Z,17.97
2018-03-27T18:32:36.879Z,18.00
2018-03-27T18:37:37.876Z,16.63
2018-03-27T18:42:38.930Z,18.13
2018-03-27T18:47:40.022Z,17.00
2018-03-27T18:52:41.046Z,16.93
2018-03-27T18:57:42.045Z,18.47
2018-03-27T19:02:43.021Z,16.57
2018-03-27T19:07:44.035Z,14.93
2018-03-27T19:12:45.025Z,15.70
2018-03-27T19:17:46.048Z,15.50
2018-03-27T19:22:47.105Z,14.43
2018-03-27T19:27:48.153Z,15.33
2018-03-27T19:32:49.170Z,15.13
2018-03-27T19:37:50.265Z,15.43
2018-03-27T19:42:51.329Z,16.47
2018-03-27T19:47:52.383Z,14.90
2018-03-27T19:52:53.416Z,15.47
2018-03-27T19:57:54.430Z,15.60
2018-03-27T20:02:55.407Z,13.80
2018-03-27T20:07:56.802Z,12.80
2018-03-27T20:12:57.841Z,11.40
2018-03-27T20:17:58.801Z,11.90
2018-03-27T20:22:59.796Z,11.73
2018-03-27T20:28:00.818Z,10.40
2018-03-27T20:33:01.858Z,12.77
2018-03-27T20:38:02.886Z,12.03
2018-03-27T20:48:38.456Z,12.67
2018-03-27T20:53:39.438Z,13.13
2018-03-27T20:58:40.426Z,12.70
2018-03-27T21:03:41.415Z,15.80
2018-03-27T21:08:42.442Z,14.50
2018-03-27T21:13:43.426Z,12.70
2018-03-27T21:18:44.400Z,11.30
2018-03-27T21:23:45.388Z,11.47
2018-03-27T21:28:46.710Z,12.67
2018-03-27T21:43:27.729Z,10.00
2018-03-27T21:48:28.701Z,10.03
2018-03-27T21:53:29.641Z,11.87
2018-03-27T21:58:30.629Z,10.37
2018-03-27T22:03:40.819Z,9.73
2018-03-27T22:08:41.795Z,9.70
2018-03-27T22:13:42.768Z,10.03
2018-03-27T22:18:43.744Z,10.70
2018-03-27T22:23:44.715Z,11.03
2018-03-27T22:28:45.678Z,11.33
2018-03-27T22:33:46.688Z,12.40
2018-03-27T22:38:47.641Z,10.50
2018-03-27T22:43:48.630Z,11.47
2018-03-27T22:48:49.624Z,11.37
2018-03-27T22:53:50.567Z,11.70
2018-03-27T22:58:51.540Z,11.37
2018-03-27T23:03:52.468Z,9.50
2018-03-27T23:08:53.404Z,10.80
2018-03-27T23:13:54.368Z,11.87
2018-03-27T23:18:55.326Z,10.90
2018-03-27T23:23:56.297Z,13.13
2018-03-27T23:28:57.242Z,21.47
2018-03-27T23:33:58.208Z,24.13
2018-03-27T23:38:59.170Z,22.63
2018-03-27T23:44:00.180Z,17.70
2018-03-27T23:49:01.149Z,14.73
2018-03-27T23:54:02.099Z,11.30
2018-03-27T23:59:03.056Z,11.20
